createdAt,value
2023-03-12T00:01:59.745Z,1.50
2023-03-12T00:04:27.043Z,2.17
2023-03-12T00:06:54.321Z,1.95
2023-03-12T00:09:20.921Z,2.13
2023-03-12T00:11:47.409Z,1.85
2023-03-12T00:14:13.897Z,1.93
2023-03-12T00:16:40.772Z,1.55
2023-03-12T00:19:07.277Z,1.13
2023-03-12T00:21:33.864Z,1.95
2023-03-12T00:24:00.366Z,1.60
2023-03-12T00:26:26.951Z,1.77
2023-03-12T00:28:53.845Z,1.60
2023-03-12T00:31:22.057Z,1.90
2023-03-12T00:33:51.469Z,1.70
2023-03-12T00:36:19.718Z,1.83
2023-03-12T00:38:46.334Z,1.90
2023-03-12T00:41:12.960Z,2.00
2023-03-12T00:43:39.445Z,2.20
2023-03-12T00:46:05.976Z,2.53
2023-03-12T00:48:32.924Z,2.45
2023-03-12T00:50:59.467Z,2.47
2023-03-12T00:53:26.331Z,2.63
2023-03-12T00:55:52.926Z,2.50
2023-03-12T00:58:19.457Z,2.42
2023-03-12T01:00:46.160Z,2.80
2023-03-12T01:03:13.472Z,2.80
2023-03-12T01:05:41.148Z,2.63
2023-03-12T01:08:09.271Z,2.90
2023-03-12T01:10:37.287Z,2.63
2023-03-12T01:13:03.987Z,2.80
2023-03-12T01:15:30.524Z,2.30
2023-03-12T01:17:56.990Z,2.80
2023-03-12T01:20:23.750Z,2.90
2023-03-12T01:22:51.344Z,3.28
2023-03-12T01:25:18.458Z,3.20
2023-03-12T01:27:45.321Z,2.90
2023-03-12T01:30:12.529Z,2.70
2023-03-12T01:32:39.203Z,2.55
2023-03-12T01:35:06.240Z,2.63
2023-03-12T01:37:33.285Z,2.70
2023-03-12T01:40:00.438Z,2.77
2023-03-12T01:42:27.077Z,3.05
2023-03-12T01:45:04.413Z,3.05
2023-03-12T01:47:34.038Z,2.65
2023-03-12T01:50:01.375Z,2.78
2023-03-12T01:52:32.440Z,3.07
2023-03-12T01:55:09.536Z,2.60
2023-03-12T01:57:55.984Z,2.45
2023-03-12T02:00:25.610Z,2.30
2023-03-12T02:02:56.249Z,2.65
2023-03-12T02:05:30.542Z,2.40
2023-03-12T02:07:57.671Z,2.72
2023-03-12T02:10:25.916Z,2.40
2023-03-12T02:12:53.207Z,2.33
2023-03-12T02:15:19.999Z,2.42
2023-03-12T02:17:46.692Z,2.23
2023-03-12T02:20:35.859Z,2.30
2023-03-12T02:23:12.891Z,2.30
2023-03-12T02:25:49.826Z,2.40
2023-03-12T02:28:19.622Z,2.33
2023-03-12T02:30:48.767Z,1.97
2023-03-12T02:33:16.135Z,1.92
2023-03-12T02:35:43.671Z,2.08
2023-03-12T02:38:32.974Z,2.78
2023-03-12T02:41:05.529Z,1.95
2023-03-12T02:43:32.460Z,2.03
2023-03-12T02:45:58.989Z,2.30
2023-03-12T02:48:25.574Z,1.85
2023-03-12T02:50:52.093Z,2.20
2023-03-12T02:53:18.571Z,1.80
2023-03-12T02:55:45.064Z,1.67
2023-03-12T02:58:11.725Z,2.00
2023-03-12T03:00:38.162Z,1.92
2023-03-12T03:03:04.652Z,2.03
2023-03-12T03:05:31.490Z,1.67
2023-03-12T03:07:57.989Z,1.80
2023-03-12T03:10:24.585Z,1.60
2023-03-12T03:12:51.590Z,1.35
2023-03-12T03:15:18.222Z,1.77
2023-03-12T03:17:44.753Z,1.58
2023-03-12T03:20:12.004Z,1.33
2023-03-12T03:22:39.220Z,1.50
2023-03-12T03:25:07.355Z,1.98
2023-03-12T03:27:34.042Z,1.85
2023-03-12T03:30:00.529Z,1.60
2023-03-12T03:32:27.430Z,1.50
2023-03-12T03:34:53.995Z,1.50
2023-03-12T03:37:20.479Z,1.30
2023-03-12T03:39:47.049Z,1.63
2023-03-12T03:42:13.568Z,1.40
2023-03-12T03:44:40.212Z,1.47
2023-03-12T03:47:06.934Z,1.30
2023-03-12T03:49:33.572Z,1.10
2023-03-12T03:52:00.188Z,1.50
2023-03-12T03:54:26.750Z,1.42
2023-03-12T03:56:53.192Z,1.43
2023-03-12T03:59:19.703Z,1.50
2023-03-12T04:01:46.258Z,1.50
2023-03-12T04:04:12.797Z,1.20
2023-03-12T04:06:39.772Z,1.17
2023-03-12T04:09:06.451Z,1.20
2023-03-12T04:11:32.944Z,1.58
2023-03-12T04:13:59.423Z,1.23
2023-03-12T04:16:27.251Z,1.13
2023-03-12T04:18:53.801Z,1.17
2023-03-12T04:21:20.404Z,1.10
2023-03-12T04:23:46.838Z,0.98
2023-03-12T04:26:13.432Z,1.20
2023-03-12T04:28:39.916Z,1.20
2023-03-12T04:31:07.958Z,1.60
2023-03-12T04:33:37.983Z,1.50
2023-03-12T04:36:05.667Z,1.33
2023-03-12T04:38:32.425Z,1.05
2023-03-12T04:41:05.465Z,1.27
2023-03-12T04:43:32.268Z,1.58
2023-03-12T04:45:59.159Z,1.70
2023-03-12T04:48:26.492Z,1.30
2023-03-12T04:50:53.444Z,1.33
2023-03-12T04:53:20.785Z,1.42
2023-03-12T04:55:47.267Z,1.27
2023-03-12T04:58:14.865Z,1.60
2023-03-12T05:00:41.912Z,1.35
2023-03-12T05:03:09.054Z,1.85
2023-03-12T05:05:36.029Z,1.50
2023-03-12T05:08:03.756Z,1.52
2023-03-12T05:10:30.420Z,1.57
2023-03-12T05:12:57.041Z,1.80
2023-03-12T05:15:23.640Z,2.10
2023-03-12T05:17:50.437Z,2.13
2023-03-12T05:20:17.804Z,1.90
2023-03-12T05:22:44.558Z,2.13
2023-03-12T05:25:11.556Z,1.98
2023-03-12T05:27:38.299Z,1.65
2023-03-12T05:30:06.774Z,1.50
2023-03-12T05:32:33.470Z,1.88
2023-03-12T05:35:00.139Z,1.87
2023-03-12T05:37:26.684Z,1.70
2023-03-12T05:39:54.520Z,1.77
2023-03-12T05:42:21.049Z,1.60
2023-03-12T05:44:47.546Z,1.63
2023-03-12T05:47:14.063Z,1.73
2023-03-12T05:49:40.809Z,2.25
2023-03-12T05:52:07.348Z,1.95
2023-03-12T05:54:33.878Z,1.70
2023-03-12T05:57:00.610Z,1.90
2023-03-12T05:59:27.390Z,1.80
2023-03-12T06:01:53.993Z,1.55
2023-03-12T06:04:20.533Z,1.42
2023-03-12T06:06:47.185Z,1.45
2023-03-12T06:09:13.803Z,1.52
2023-03-12T06:11:40.307Z,1.77
2023-03-12T06:14:06.839Z,1.80
2023-03-12T06:16:33.590Z,1.30
2023-03-12T06:19:02.599Z,2.22
2023-03-12T06:21:32.186Z,1.90
2023-03-12T06:23:59.639Z,1.63
2023-03-12T06:26:27.411Z,1.77
2023-03-12T06:28:54.304Z,2.40
2023-03-12T06:31:21.820Z,1.88
2023-03-12T06:33:48.460Z,2.33
2023-03-12T06:36:15.139Z,1.70
2023-03-12T06:38:41.782Z,2.25
2023-03-12T06:41:11.225Z,1.98
2023-03-12T06:43:39.255Z,2.95
2023-03-12T06:46:08.602Z,1.80
2023-03-12T06:48:36.882Z,1.87
2023-03-12T06:51:10.755Z,1.73
2023-03-12T06:53:40.395Z,2.17
2023-03-12T06:56:08.834Z,2.20
2023-03-12T06:58:35.362Z,2.75
2023-03-12T07:01:01.884Z,2.50
2023-03-12T07:03:28.397Z,2.20
2023-03-12T07:05:56.708Z,2.22
2023-03-12T07:08:23.624Z,2.10
2023-03-12T07:10:50.227Z,2.38
2023-03-12T07:13:16.902Z,2.13
2023-03-12T07:15:45.113Z,1.98
2023-03-12T07:18:12.273Z,2.08
2023-03-12T07:20:41.254Z,2.22
2023-03-12T07:23:08.649Z,2.38
2023-03-12T07:25:37.603Z,2.17
2023-03-12T07:28:04.452Z,2.33
2023-03-12T07:30:34.396Z,2.92
2023-03-12T07:33:05.871Z,2.20
2023-03-12T07:35:32.964Z,2.10
2023-03-12T07:38:01.051Z,2.10
2023-03-12T07:40:28.531Z,2.30
2023-03-12T07:42:55.250Z,2.63
2023-03-12T07:45:21.812Z,2.40
2023-03-12T07:47:48.443Z,2.25
2023-03-12T07:50:16.271Z,2.30
2023-03-12T07:52:43.129Z,2.38
2023-03-12T07:55:11.010Z,2.38
2023-03-12T07:57:38.347Z,2.47
2023-03-12T08:00:07.706Z,2.28
2023-03-12T08:02:34.548Z,2.33
2023-03-12T08:05:01.218Z,2.67
2023-03-12T08:07:32.333Z,2.92
2023-03-12T08:10:00.009Z,2.78
2023-03-12T08:12:27.149Z,3.10
2023-03-12T08:14:53.892Z,2.67
2023-03-12T08:17:20.643Z,2.42
2023-03-12T08:19:47.252Z,2.92
2023-03-12T08:22:13.745Z,2.90
2023-03-12T08:24:40.311Z,3.00
2023-03-12T08:27:06.833Z,3.20
2023-03-12T08:29:33.565Z,3.25
2023-03-12T08:32:04.943Z,3.05
2023-03-12T08:34:33.858Z,3.13
2023-03-12T08:37:00.766Z,3.13
2023-03-12T08:39:27.244Z,3.20
2023-03-12T08:41:55.543Z,3.40
2023-03-12T08:44:23.342Z,3.33
2023-03-12T08:46:50.233Z,3.33
2023-03-12T08:49:16.711Z,3.20
2023-03-12T08:51:43.236Z,3.00
2023-03-12T08:54:09.811Z,3.70
2023-03-12T08:56:42.379Z,3.33
2023-03-12T08:59:12.561Z,3.30
2023-03-12T09:01:43.041Z,3.47
2023-03-12T09:04:10.405Z,3.90
2023-03-12T09:06:38.627Z,3.83
2023-03-12T09:09:05.414Z,3.60
2023-03-12T09:11:33.840Z,3.60
2023-03-12T09:16:47.859Z,4.60
2023-03-12T09:19:14.378Z,4.22
2023-03-12T09:21:40.995Z,4.63
2023-03-12T09:24:08.261Z,5.30
2023-03-12T09:26:34.888Z,4.85
2023-03-12T09:29:01.562Z,5.10
2023-03-12T09:31:28.782Z,4.63
2023-03-12T09:33:55.304Z,5.30
2023-03-12T09:36:21.990Z,5.57
2023-03-12T09:38:48.508Z,5.57
2023-03-12T09:41:19.657Z,5.90
2023-03-12T09:43:52.934Z,5.70
2023-03-12T09:46:29.216Z,5.85
2023-03-12T09:49:01.670Z,5.18
2023-03-12T09:51:51.607Z,5.85
2023-03-12T09:54:23.931Z,6.27
2023-03-12T09:56:55.017Z,5.97
2023-03-12T09:59:22.382Z,6.45
2023-03-12T10:02:02.069Z,6.78
2023-03-12T10:04:58.135Z,6.40
2023-03-12T10:07:34.792Z,6.17
2023-03-12T10:10:55.824Z,7.20
2023-03-12T10:13:33.549Z,7.32
2023-03-12T10:16:08.591Z,5.93
2023-03-12T10:18:55.877Z,6.65
2023-03-12T10:21:32.010Z,6.63
2023-03-12T10:24:29.182Z,6.65
2023-03-12T10:26:58.309Z,6.75
2023-03-12T10:29:35.061Z,6.68
2023-03-12T10:32:07.455Z,6.70
2023-03-12T10:34:45.839Z,6.63
2023-03-12T10:37:22.612Z,6.78
2023-03-12T10:39:50.060Z,6.68
2023-03-12T10:42:29.222Z,6.70
2023-03-12T10:44:59.944Z,6.55
2023-03-12T10:47:38.240Z,6.77
2023-03-12T10:50:18.106Z,6.97
2023-03-12T10:52:46.362Z,7.18
2023-03-12T10:55:12.799Z,7.40
2023-03-12T10:57:42.873Z,7.30
2023-03-12T11:00:13.648Z,6.10
2023-03-12T11:02:43.538Z,6.85
2023-03-12T11:05:25.900Z,6.80
2023-03-12T11:07:52.940Z,6.65
2023-03-12T11:10:25.219Z,6.85
2023-03-12T11:12:58.577Z,6.10
2023-03-12T11:15:40.821Z,5.50
2023-03-12T11:18:25.104Z,5.45
2023-03-12T11:21:12.695Z,5.50
2023-03-12T11:24:15.259Z,5.22
2023-03-12T11:27:03.298Z,5.33
2023-03-12T11:29:33.358Z,4.85
2023-03-12T11:32:17.156Z,4.45
2023-03-12T11:34:49.559Z,5.03
2023-03-12T11:37:53.589Z,4.30
2023-03-12T11:40:54.230Z,4.53
2023-03-12T11:43:42.819Z,3.95
2023-03-12T11:46:44.771Z,4.45
2023-03-12T11:49:26.369Z,3.42
2023-03-12T11:52:02.036Z,3.38
2023-03-12T11:54:47.897Z,3.00
2023-03-12T11:57:57.105Z,3.58
2023-03-12T12:00:39.091Z,3.47
2023-03-12T12:03:42.871Z,3.33
2023-03-12T12:06:12.287Z,3.55
2023-03-12T12:08:48.081Z,3.10
2023-03-12T12:11:32.497Z,3.30
2023-03-12T12:14:44.064Z,2.97
2023-03-12T12:17:29.764Z,2.90
2023-03-12T12:20:22.257Z,2.65
2023-03-12T12:22:58.797Z,2.70
2023-03-12T12:25:55.806Z,2.78
2023-03-12T12:28:59.912Z,2.42
2023-03-12T12:31:56.969Z,3.03
2023-03-12T12:34:36.325Z,2.67
2023-03-12T12:37:18.871Z,3.03
2023-03-12T12:40:18.064Z,2.40
2023-03-12T12:43:04.455Z,2.63
2023-03-12T12:45:31.228Z,3.00
2023-03-12T12:48:03.850Z,3.35
2023-03-12T12:50:36.834Z,2.73
2023-03-12T12:53:23.160Z,2.83
2023-03-12T12:56:01.126Z,3.40
2023-03-12T12:58:59.021Z,2.65
2023-03-12T13:01:27.852Z,2.88
2023-03-12T13:04:01.786Z,2.47
2023-03-12T13:06:30.211Z,2.95
2023-03-12T13:08:56.716Z,2.42
2023-03-12T13:11:27.350Z,2.47
2023-03-12T13:14:03.622Z,3.25
2023-03-12T13:16:46.514Z,2.60
2023-03-12T13:19:16.079Z,2.63
2023-03-12T13:22:10.551Z,2.30
2023-03-12T13:24:44.995Z,2.40
2023-03-12T13:27:36.519Z,3.28
2023-03-12T13:30:27.914Z,2.60
2023-03-12T13:32:57.554Z,2.45
2023-03-12T13:35:24.321Z,2.80
2023-03-12T13:37:53.492Z,3.42
2023-03-12T13:40:29.233Z,3.13
2023-03-12T13:43:02.773Z,3.10
2023-03-12T13:45:31.902Z,3.72
2023-03-12T13:48:02.094Z,2.55
2023-03-12T13:50:30.330Z,2.70
2023-03-12T13:53:25.918Z,3.42
2023-03-12T13:56:10.734Z,2.40
2023-03-12T13:58:57.352Z,2.28
2023-03-12T14:01:29.437Z,2.97
2023-03-12T14:04:00.431Z,2.92
2023-03-12T14:06:30.313Z,2.30
2023-03-12T14:09:39.268Z,2.23
2023-03-12T14:12:19.345Z,2.05
2023-03-12T14:14:51.815Z,2.78
2023-03-12T14:17:24.456Z,2.45
2023-03-12T14:20:23.220Z,2.60
2023-03-12T14:22:59.001Z,2.60
2023-03-12T14:25:37.788Z,2.75
2023-03-12T14:28:12.544Z,1.55
2023-03-12T14:30:57.673Z,2.05
2023-03-12T14:33:27.268Z,2.40
2023-03-12T14:36:01.668Z,2.00
2023-03-12T14:38:34.540Z,2.00
2023-03-12T14:41:13.621Z,2.00
2023-03-12T14:43:42.534Z,1.88
2023-03-12T14:46:21.553Z,1.33
2023-03-12T14:48:50.637Z,1.50
2023-03-12T14:51:24.406Z,1.48
2023-03-12T14:53:51.838Z,1.60
2023-03-12T14:56:35.153Z,1.95
2023-03-12T14:59:21.481Z,1.92
2023-03-12T15:01:48.357Z,1.27
2023-03-12T15:04:18.342Z,2.22
2023-03-12T15:06:51.260Z,2.42
2023-03-12T15:09:28.208Z,1.48
2023-03-12T15:11:58.421Z,1.73
2023-03-12T15:14:28.222Z,1.70
2023-03-12T15:16:56.022Z,1.90
2023-03-12T15:19:31.394Z,1.60
2023-03-12T15:21:58.278Z,1.50
2023-03-12T15:24:25.303Z,2.05
2023-03-12T15:26:51.873Z,2.30
2023-03-12T15:29:29.285Z,1.70
2023-03-12T15:31:58.864Z,2.95
2023-03-12T15:34:39.254Z,3.17
2023-03-12T15:37:40.947Z,2.10
2023-03-12T15:40:22.043Z,2.33
2023-03-12T15:42:49.775Z,1.88
2023-03-12T15:45:32.075Z,1.90
2023-03-12T15:47:58.709Z,1.33
2023-03-12T15:50:36.753Z,1.35
2023-03-12T15:53:06.679Z,1.67
2023-03-12T15:55:35.658Z,1.73
2023-03-12T15:58:02.991Z,1.40
2023-03-12T16:00:44.637Z,1.35
2023-03-12T16:03:17.308Z,1.33
2023-03-12T16:05:44.612Z,1.30
2023-03-12T16:08:11.520Z,1.85
2023-03-12T16:10:38.978Z,1.90
2023-03-12T16:13:05.793Z,1.55
2023-03-12T16:15:36.122Z,2.40
2023-03-12T16:18:03.009Z,1.50
2023-03-12T16:20:30.198Z,1.77
2023-03-12T16:22:56.887Z,2.17
2023-03-12T16:25:23.843Z,2.25
2023-03-12T16:27:54.799Z,1.83
2023-03-12T16:30:31.322Z,1.97
2023-03-12T16:33:00.268Z,1.67
2023-03-12T16:35:28.311Z,1.60
2023-03-12T16:37:55.757Z,1.83
2023-03-12T16:40:32.953Z,2.20
2023-03-12T16:43:03.367Z,1.80
2023-03-12T16:45:33.397Z,1.40
2023-03-12T16:48:03.510Z,1.85
2023-03-12T16:50:30.716Z,2.10
2023-03-12T16:52:58.006Z,2.22
2023-03-12T16:55:44.207Z,2.57
2023-03-12T16:58:13.271Z,1.83
2023-03-12T17:00:40.556Z,1.48
2023-03-12T17:03:07.088Z,2.10
2023-03-12T17:05:33.628Z,1.80
2023-03-12T17:08:00.165Z,2.23
2023-03-12T17:10:26.789Z,2.30
2023-03-12T17:12:53.833Z,2.08
2023-03-12T17:15:33.361Z,2.47
2023-03-12T17:18:03.657Z,2.03
2023-03-12T17:20:36.071Z,1.80
2023-03-12T17:23:03.928Z,2.05
2023-03-12T17:25:33.001Z,2.30
2023-03-12T17:28:00.110Z,1.80
2023-03-12T17:30:29.170Z,1.80
2023-03-12T17:33:04.729Z,1.97
2023-03-12T17:35:31.896Z,1.77
2023-03-12T17:37:58.827Z,2.05
2023-03-12T17:40:25.493Z,1.80
2023-03-12T17:42:52.293Z,1.60
2023-03-12T17:45:18.794Z,1.27
2023-03-12T17:47:45.458Z,1.80
2023-03-12T17:50:12.476Z,1.85
2023-03-12T17:52:38.999Z,2.85
2023-03-12T17:55:06.533Z,1.48
2023-03-12T17:57:33.415Z,1.30
2023-03-12T17:59:59.905Z,1.60
2023-03-12T18:02:26.472Z,1.42
2023-03-12T18:04:53.062Z,2.00
2023-03-12T18:07:19.550Z,1.73
2023-03-12T18:09:46.088Z,1.33
2023-03-12T18:12:12.758Z,1.33
2023-03-12T18:14:39.443Z,1.20
2023-03-12T18:17:06.258Z,1.60
2023-03-12T18:19:35.182Z,1.20
2023-03-12T18:22:01.987Z,1.10
2023-03-12T18:24:28.601Z,1.00
2023-03-12T18:26:55.166Z,0.57
2023-03-12T18:29:21.639Z,1.38
2023-03-12T18:31:48.116Z,0.60
2023-03-12T18:34:14.591Z,0.67
2023-03-12T18:36:41.092Z,0.98
2023-03-12T18:39:07.760Z,1.05
2023-03-12T18:41:34.204Z,1.15
2023-03-12T18:44:00.713Z,0.40
2023-03-12T18:46:28.095Z,0.80
2023-03-12T18:48:54.808Z,0.90
2023-03-12T18:51:21.354Z,0.50
2023-03-12T18:53:47.794Z,0.40
2023-03-12T18:56:14.879Z,0.55
2023-03-12T18:58:41.468Z,0.50
2023-03-12T19:01:08.036Z,0.70
2023-03-12T19:03:36.634Z,0.85
2023-03-12T19:06:08.554Z,0.40
2023-03-12T19:08:37.289Z,0.73
2023-03-12T19:11:09.610Z,0.60
2023-03-12T19:13:36.418Z,0.38
2023-03-12T19:16:06.051Z,0.20
2023-03-12T19:18:32.516Z,0.70
2023-03-12T19:20:59.093Z,0.40
2023-03-12T19:23:25.633Z,0.60
2023-03-12T19:25:52.221Z,0.63
2023-03-12T19:28:18.869Z,0.63
2023-03-12T19:30:45.384Z,1.10
2023-03-12T19:33:12.111Z,0.88
2023-03-12T19:35:39.850Z,0.60
2023-03-12T19:38:06.380Z,0.45
2023-03-12T19:40:34.150Z,0.55
2023-03-12T19:43:02.205Z,0.68
2023-03-12T19:45:29.096Z,1.15
2023-03-12T19:47:55.765Z,1.00
2023-03-12T19:50:23.077Z,0.82
2023-03-12T19:52:49.763Z,0.70
2023-03-12T19:55:16.454Z,1.10
2023-03-12T19:57:43.097Z,1.42
2023-03-12T20:00:12.192Z,1.30
2023-03-12T20:02:39.418Z,1.20
2023-03-12T20:05:07.336Z,1.80
2023-03-12T20:07:34.016Z,1.60
2023-03-12T20:10:00.606Z,1.40
2023-03-12T20:12:27.437Z,1.90
2023-03-12T20:14:53.937Z,1.88
2023-03-12T20:17:20.416Z,1.60
2023-03-12T20:19:46.888Z,1.50
2023-03-12T20:22:13.507Z,1.50
2023-03-12T20:24:40.245Z,1.80
2023-03-12T20:27:06.780Z,1.58
2023-03-12T20:29:33.389Z,1.85
2023-03-12T20:31:59.954Z,2.28
2023-03-12T20:34:26.519Z,1.90
2023-03-12T20:36:53.052Z,1.40
2023-03-12T20:39:19.817Z,1.95
2023-03-12T20:41:46.312Z,1.05
2023-03-12T20:44:12.944Z,3.63
2023-03-12T20:46:39.442Z,1.77
2023-03-12T20:49:05.980Z,1.03
2023-03-12T20:51:32.477Z,2.13
2023-03-12T20:53:59.029Z,1.75
2023-03-12T20:56:25.583Z,1.85
2023-03-12T20:58:52.339Z,1.48
2023-03-12T21:01:18.882Z,1.40
2023-03-12T21:03:45.758Z,1.58
2023-03-12T21:06:12.319Z,2.17
2023-03-12T21:08:38.854Z,1.55
2023-03-12T21:11:06.767Z,1.63
2023-03-12T21:13:33.286Z,1.47
2023-03-12T21:15:59.828Z,1.40
2023-03-12T21:18:26.402Z,1.50
2023-03-12T21:20:53.135Z,1.15
2023-03-12T21:23:19.905Z,1.48
2023-03-12T21:25:46.496Z,1.00
2023-03-12T21:28:13.060Z,1.20
2023-03-12T21:30:39.618Z,1.63
2023-03-12T21:33:07.275Z,1.50
2023-03-12T21:35:33.764Z,1.30
2023-03-12T21:38:00.369Z,1.60
2023-03-12T21:40:27.007Z,1.60
2023-03-12T21:42:53.538Z,1.60
2023-03-12T21:45:19.966Z,1.33
2023-03-12T21:47:46.395Z,1.70
2023-03-12T21:50:13.013Z,1.40
2023-03-12T21:52:42.913Z,2.30
2023-03-12T21:55:10.123Z,1.40
2023-03-12T21:57:36.632Z,1.40
2023-03-12T22:00:04.333Z,1.30
2023-03-12T22:02:31.706Z,1.63
2023-03-12T22:05:01.362Z,1.63
2023-03-12T22:07:30.983Z,1.40
2023-03-12T22:09:57.668Z,2.35
2023-03-12T22:12:24.334Z,1.92
2023-03-12T22:14:51.056Z,1.83
2023-03-12T22:17:17.783Z,2.40
2023-03-12T22:19:44.477Z,1.70
2023-03-12T22:22:11.207Z,1.40
2023-03-12T22:24:38.025Z,1.80
2023-03-12T22:27:07.355Z,1.70
2023-03-12T22:29:34.510Z,2.00
2023-03-12T22:32:01.170Z,2.05
2023-03-12T22:34:29.421Z,1.80
2023-03-12T22:36:55.987Z,2.28
2023-03-12T22:39:22.462Z,2.07
2023-03-12T22:41:52.968Z,2.28
2023-03-12T22:44:19.638Z,1.90
2023-03-12T22:46:46.350Z,2.17
2023-03-12T22:49:12.956Z,2.33
2023-03-12T22:51:39.458Z,2.00
2023-03-12T22:54:06.022Z,1.75
2023-03-12T22:56:32.535Z,2.03
2023-03-12T22:58:59.505Z,2.28
2023-03-12T23:01:26.646Z,1.80
2023-03-12T23:03:53.176Z,1.80
2023-03-12T23:06:22.842Z,1.83
2023-03-12T23:08:49.628Z,1.98
2023-03-12T23:11:17.347Z,1.40
2023-03-12T23:13:45.257Z,2.15
2023-03-12T23:16:17.526Z,1.97
2023-03-12T23:18:44.881Z,1.50
2023-03-12T23:21:17.809Z,1.83
2023-03-12T23:23:45.087Z,2.00
2023-03-12T23:26:15.533Z,2.00
2023-03-12T23:28:42.088Z,2.07
2023-03-12T23:31:10.570Z,2.15
2023-03-12T23:33:37.841Z,1.73
2023-03-12T23:36:10.948Z,1.58
2023-03-12T23:38:38.265Z,1.80
2023-03-12T23:41:07.778Z,2.03
2023-03-12T23:43:34.574Z,1.65
2023-03-12T23:46:03.190Z,1.52
2023-03-12T23:48:31.625Z,1.70
2023-03-12T23:51:09.296Z,2.25
2023-03-12T23:53:37.181Z,1.73
2023-03-12T23:56:05.963Z,1.55
2023-03-12T23:58:33.223Z,2.00
